createdAt,value
2022-10-06T00:02:13.738Z,101250.03
2022-10-06T00:04:40.332Z,101262.22
2022-10-06T00:07:07.097Z,101275.00
2022-10-06T00:09:34.041Z,101277.38
2022-10-06T00:12:00.594Z,101283.75
2022-10-06T00:14:28.151Z,101282.06
2022-10-06T00:16:54.708Z,101288.03
2022-10-06T00:19:21.816Z,101284.22
2022-10-06T00:21:48.475Z,101297.22
2022-10-06T00:24:15.101Z,101297.84
2022-10-06T00:26:41.667Z,101305.75
2022-10-06T00:29:08.205Z,101300.88
2022-10-06T00:31:34.789Z,101305.09
2022-10-06T00:34:01.389Z,101298.28
2022-10-06T00:36:28.462Z,101310.47
2022-10-06T00:38:56.534Z,101318.56
2022-10-06T00:41:23.292Z,101320.88
2022-10-06T00:43:53.938Z,101317.06
2022-10-06T00:46:26.629Z,101333.69
2022-10-06T00:49:00.252Z,101328.34
2022-10-06T00:51:28.004Z,101341.34
2022-10-06T00:53:54.762Z,101347.13
2022-10-06T00:56:21.389Z,101347.31
2022-10-06T00:58:50.135Z,101352.88
2022-10-06T01:01:17.467Z,101353.94
2022-10-06T01:03:49.637Z,101352.66
2022-10-06T01:06:16.298Z,101356.88
2022-10-06T01:08:42.863Z,101363.94
2022-10-06T01:11:14.267Z,101371.19
2022-10-06T01:13:44.749Z,101370.31
2022-10-06T01:16:23.132Z,101370.75
2022-10-06T01:18:51.768Z,101360.72
2022-10-06T01:21:32.085Z,101370.13
2022-10-06T01:24:02.848Z,101388.69
2022-10-06T01:26:33.768Z,101376.53
2022-10-06T01:29:01.009Z,101382.69
2022-10-06T01:31:29.350Z,101392.47
2022-10-06T01:33:56.619Z,101393.72
2022-10-06T01:36:23.632Z,101394.56
2022-10-06T01:38:51.609Z,101398.66
2022-10-06T01:41:18.349Z,101406.56
2022-10-06T01:43:46.077Z,101403.53
2022-10-06T01:46:12.949Z,101409.91
2022-10-06T01:48:40.857Z,101399.25
2022-10-06T01:51:13.637Z,101415.16
2022-10-06T01:53:41.086Z,101414.75
2022-10-06T01:56:08.528Z,101413.50
2022-10-06T01:58:35.589Z,101412.84
2022-10-06T02:01:09.522Z,101427.81
2022-10-06T02:03:37.890Z,101422.00
2022-10-06T02:06:04.746Z,101423.94
2022-10-06T02:08:32.414Z,101427.56
2022-10-06T02:11:05.752Z,101438.88
2022-10-06T02:13:32.335Z,101434.16
2022-10-06T02:15:58.991Z,101447.13
2022-10-06T02:18:27.073Z,101439.88
2022-10-06T02:20:54.558Z,101452.81
2022-10-06T02:23:21.108Z,101450.63
2022-10-06T02:25:47.809Z,101463.53
2022-10-06T02:28:15.001Z,101467.78
2022-10-06T02:30:41.846Z,101469.09
2022-10-06T02:33:08.462Z,101468.88
2022-10-06T02:35:34.997Z,101470.28
2022-10-06T02:38:02.560Z,101475.81
2022-10-06T02:40:29.517Z,101482.22
2022-10-06T02:42:56.305Z,101490.03
2022-10-06T02:45:22.861Z,101489.09
2022-10-06T02:47:50.123Z,101491.59
2022-10-06T02:50:16.691Z,101506.50
2022-10-06T02:52:45.108Z,101492.09
2022-10-06T02:55:12.054Z,101503.63
2022-10-06T02:57:39.382Z,101499.91
2022-10-06T03:00:07.692Z,101515.88
2022-10-06T03:02:34.798Z,101504.00
2022-10-06T03:05:01.666Z,101520.56
2022-10-06T03:07:28.465Z,101514.97
2022-10-06T03:09:55.314Z,101525.66
2022-10-06T03:12:24.092Z,101529.47
2022-10-06T03:14:51.710Z,101533.34
2022-10-06T03:17:19.107Z,101532.44
2022-10-06T03:19:50.864Z,101554.81
2022-10-06T03:22:17.400Z,101552.84
2022-10-06T03:24:53.152Z,101549.91
2022-10-06T03:27:20.904Z,101554.38
2022-10-06T03:29:47.510Z,101556.53
2022-10-06T03:32:15.357Z,101568.28
2022-10-06T03:34:43.427Z,101570.31
2022-10-06T03:37:13.278Z,101575.66
2022-10-06T03:39:40.082Z,101583.69
2022-10-06T03:42:06.700Z,101592.00
2022-10-06T03:44:34.935Z,101601.63
2022-10-06T03:47:01.988Z,101592.53
2022-10-06T03:49:28.846Z,101594.22
2022-10-06T03:51:55.493Z,101606.13
2022-10-06T03:54:26.623Z,101603.75
2022-10-06T03:56:53.429Z,101606.53
2022-10-06T03:59:20.125Z,101609.03
2022-10-06T04:01:48.953Z,101611.69
2022-10-06T04:04:20.088Z,101612.34
2022-10-06T04:06:50.637Z,101623.19
2022-10-06T04:09:19.550Z,101633.41
2022-10-06T04:11:46.940Z,101637.50
2022-10-06T04:14:15.633Z,101643.56
2022-10-06T04:16:47.829Z,101650.31
2022-10-06T04:19:18.397Z,101653.47
2022-10-06T04:21:48.837Z,101647.66
2022-10-06T04:24:19.383Z,101648.84
2022-10-06T04:26:52.218Z,101663.25
2022-10-06T04:29:19.717Z,101660.88
2022-10-06T04:31:51.331Z,101667.72
2022-10-06T04:34:25.980Z,101667.56
2022-10-06T04:36:53.513Z,101662.88
2022-10-06T04:39:20.597Z,101680.84
2022-10-06T04:41:47.619Z,101677.31
2022-10-06T04:44:28.364Z,101680.38
2022-10-06T04:46:58.020Z,101686.91
2022-10-06T04:49:25.109Z,101696.63
2022-10-06T04:51:53.293Z,101693.09
2022-10-06T04:54:20.745Z,101693.75
2022-10-06T04:56:50.499Z,101701.28
2022-10-06T04:59:19.377Z,101713.78
2022-10-06T05:01:48.017Z,101718.00
2022-10-06T05:04:14.718Z,101723.81
2022-10-06T05:06:42.438Z,101725.75
2022-10-06T05:09:13.262Z,101718.47
2022-10-06T05:11:45.240Z,101720.88
2022-10-06T05:14:15.273Z,101733.09
2022-10-06T05:16:44.860Z,101733.00
2022-10-06T05:19:12.565Z,101735.00
2022-10-06T05:21:40.485Z,101745.41
2022-10-06T05:24:08.957Z,101748.44
2022-10-06T05:26:36.704Z,101756.97
2022-10-06T05:29:06.357Z,101752.66
2022-10-06T05:31:38.703Z,101754.47
2022-10-06T05:34:05.911Z,101755.59
2022-10-06T05:36:33.891Z,101774.31
2022-10-06T05:39:02.231Z,101771.44
2022-10-06T05:41:37.736Z,101770.22
2022-10-06T05:44:06.946Z,101771.63
2022-10-06T05:46:35.456Z,101793.59
2022-10-06T05:49:10.655Z,101790.91
2022-10-06T05:51:41.851Z,101795.50
2022-10-06T05:54:16.556Z,101799.97
2022-10-06T05:56:43.126Z,101805.59
2022-10-06T05:59:09.888Z,101810.72
2022-10-06T06:01:42.559Z,101809.50
2022-10-06T06:04:16.916Z,101816.84
2022-10-06T06:06:48.736Z,101822.56
2022-10-06T06:09:21.282Z,101823.72
2022-10-06T06:11:53.951Z,101824.66
2022-10-06T06:14:44.107Z,101837.47
2022-10-06T06:17:14.980Z,101830.41
2022-10-06T06:19:41.748Z,101830.78
2022-10-06T06:22:08.940Z,101836.69
2022-10-06T06:24:38.660Z,101837.91
2022-10-06T06:27:05.297Z,101843.06
2022-10-06T06:29:31.899Z,101850.88
2022-10-06T06:31:59.457Z,101859.50
2022-10-06T06:34:27.244Z,101861.31
2022-10-06T06:36:55.818Z,101872.47
2022-10-06T06:39:22.727Z,101875.72
2022-10-06T06:41:50.939Z,101871.59
2022-10-06T06:44:31.165Z,101877.69
2022-10-06T06:47:09.695Z,101879.88
2022-10-06T06:49:36.284Z,101888.69
2022-10-06T06:52:06.745Z,101885.13
2022-10-06T06:54:34.956Z,101891.25
2022-10-06T06:57:07.070Z,101896.31
2022-10-06T06:59:34.051Z,101912.72
2022-10-06T07:02:01.095Z,101906.81
2022-10-06T07:04:30.472Z,101906.41
2022-10-06T07:06:58.253Z,101917.47
2022-10-06T07:09:28.420Z,101917.94
2022-10-06T07:12:00.890Z,101923.38
2022-10-06T07:14:27.496Z,101923.16
2022-10-06T07:17:13.326Z,101923.66
2022-10-06T07:19:47.549Z,101929.75
2022-10-06T07:22:36.525Z,101933.28
2022-10-06T07:25:27.029Z,101937.50
2022-10-06T07:28:02.530Z,101941.91
2022-10-06T07:30:36.027Z,101955.06
2022-10-06T07:33:12.300Z,101957.31
2022-10-06T07:35:39.560Z,101956.25
2022-10-06T07:38:07.812Z,101961.63
2022-10-06T07:40:46.277Z,101971.06
2022-10-06T07:43:17.955Z,101973.09
2022-10-06T07:45:46.969Z,101976.34
2022-10-06T07:48:32.651Z,101985.13
2022-10-06T07:51:06.991Z,101979.97
2022-10-06T07:53:37.592Z,101981.31
2022-10-06T07:56:42.087Z,101988.97
2022-10-06T07:59:08.611Z,101990.50
2022-10-06T08:01:35.211Z,101984.69
2022-10-06T08:04:06.739Z,101993.66
2022-10-06T08:06:34.289Z,101998.47
2022-10-06T08:09:01.381Z,101996.09
2022-10-06T08:11:28.376Z,102006.88
2022-10-06T08:13:54.923Z,102012.16
2022-10-06T08:16:23.906Z,102009.75
2022-10-06T08:18:53.181Z,102012.53
2022-10-06T08:21:23.956Z,102020.19
2022-10-06T08:23:52.196Z,102020.47
2022-10-06T08:26:20.608Z,102014.91
2022-10-06T08:28:52.126Z,102030.41
2022-10-06T08:31:21.590Z,102034.78
2022-10-06T08:33:48.480Z,102033.56
2022-10-06T08:36:17.742Z,102039.09
2022-10-06T08:38:46.291Z,102041.97
2022-10-06T08:41:50.028Z,102040.44
2022-10-06T08:44:30.310Z,102041.84
2022-10-06T08:47:04.013Z,102044.06
2022-10-06T08:49:46.215Z,102053.22
2022-10-06T08:52:37.862Z,102055.25
2022-10-06T08:55:23.695Z,102064.69
2022-10-06T08:57:53.240Z,102057.97
2022-10-06T09:00:22.174Z,102058.28
2022-10-06T09:02:50.640Z,102064.44
2022-10-06T09:05:25.473Z,102063.56
2022-10-06T09:08:29.892Z,102061.81
2022-10-06T09:11:08.683Z,102066.31
2022-10-06T09:13:52.115Z,102072.06
2022-10-06T09:16:28.190Z,102068.31
2022-10-06T09:19:09.696Z,102065.03
2022-10-06T09:21:48.677Z,102076.34
2022-10-06T09:24:46.962Z,102087.34
2022-10-06T09:27:36.633Z,102085.13
2022-10-06T09:30:06.526Z,102074.22
2022-10-06T09:32:34.713Z,102088.72
2022-10-06T09:35:02.595Z,102095.69
2022-10-06T09:37:29.239Z,102094.59
2022-10-06T09:39:56.138Z,102103.50
2022-10-06T09:42:29.804Z,102104.44
2022-10-06T09:45:16.386Z,102111.34
2022-10-06T09:47:45.375Z,102097.34
2022-10-06T09:50:24.209Z,102100.53
2022-10-06T09:53:06.195Z,102105.69
2022-10-06T09:55:43.367Z,102116.78
2022-10-06T09:58:21.465Z,102110.63
2022-10-06T10:00:52.490Z,102116.72
2022-10-06T10:03:20.026Z,102114.53
2022-10-06T10:05:50.291Z,102113.00
2022-10-06T10:08:30.632Z,102113.88
2022-10-06T10:11:32.791Z,102115.56
2022-10-06T10:13:59.985Z,102112.72
2022-10-06T10:16:34.319Z,102114.25
2022-10-06T10:19:04.114Z,102114.13
2022-10-06T10:21:35.505Z,102112.16
2022-10-06T10:24:17.556Z,102116.00
2022-10-06T10:27:00.331Z,102112.84
2022-10-06T10:29:50.608Z,102105.34
2022-10-06T10:32:26.380Z,102109.09
2022-10-06T10:35:06.309Z,102112.31
2022-10-06T10:38:00.458Z,102110.13
2022-10-06T10:40:36.076Z,102118.38
2022-10-06T10:43:11.603Z,102120.44
2022-10-06T10:45:50.155Z,102113.31
2022-10-06T10:48:25.009Z,102117.66
2022-10-06T10:51:01.328Z,102122.81
2022-10-06T10:53:50.633Z,102124.81
2022-10-06T10:56:21.184Z,102116.47
2022-10-06T10:58:53.877Z,102120.38
2022-10-06T11:01:41.613Z,102124.34
2022-10-06T11:04:12.539Z,102134.28
2022-10-06T11:06:54.577Z,102132.63
2022-10-06T11:09:28.877Z,102136.53
2022-10-06T11:11:55.440Z,102133.13
2022-10-06T11:14:59.417Z,102132.34
2022-10-06T11:17:44.758Z,102136.13
2022-10-06T11:20:24.640Z,102140.97
2022-10-06T11:23:01.576Z,102141.75
2022-10-06T11:25:41.938Z,102137.34
2022-10-06T11:28:19.741Z,102127.28
2022-10-06T11:31:03.675Z,102134.94
2022-10-06T11:33:49.375Z,102125.59
2022-10-06T11:36:23.840Z,102131.75
2022-10-06T11:39:14.961Z,102134.31
2022-10-06T11:42:16.690Z,102130.50
2022-10-06T11:44:55.350Z,102127.59
2022-10-06T11:47:37.864Z,102123.81
2022-10-06T11:50:35.597Z,102122.88
2022-10-06T11:53:03.193Z,102125.34
2022-10-06T11:55:29.984Z,102116.94
2022-10-06T11:58:23.386Z,102127.28
2022-10-06T12:00:54.593Z,102123.84
2022-10-06T12:03:33.050Z,102120.78
2022-10-06T12:06:00.054Z,102129.31
2022-10-06T12:08:36.769Z,102118.19
2022-10-06T12:11:03.913Z,102114.78
2022-10-06T12:14:44.468Z,102118.78
2022-10-06T12:19:38.608Z,102111.50
2022-10-06T12:22:10.850Z,102124.31
2022-10-06T12:24:43.365Z,102116.50
2022-10-06T12:27:33.030Z,102108.28
2022-10-06T12:30:00.119Z,102114.22
2022-10-06T12:32:51.350Z,102097.84
2022-10-06T12:35:40.101Z,102105.13
2022-10-06T12:38:31.601Z,102103.44
2022-10-06T12:40:59.454Z,102103.78
2022-10-06T12:43:28.776Z,102100.41
2022-10-06T12:46:22.712Z,102103.75
2022-10-06T12:49:22.046Z,102108.75
2022-10-06T12:51:53.405Z,102093.94
2022-10-06T12:54:38.241Z,102104.81
2022-10-06T12:57:17.600Z,102101.59
2022-10-06T12:59:44.615Z,102097.38
2022-10-06T13:02:25.808Z,102097.03
2022-10-06T13:05:02.431Z,102099.41
2022-10-06T13:07:32.284Z,102099.34
2022-10-06T13:10:18.379Z,102096.34
2022-10-06T13:12:47.382Z,102097.84
2022-10-06T13:15:35.642Z,102099.72
2022-10-06T13:18:16.986Z,102089.31
2022-10-06T13:20:47.617Z,102092.84
2022-10-06T13:23:38.096Z,102089.34
2022-10-06T13:26:08.531Z,102081.75
2022-10-06T13:28:43.959Z,102080.00
2022-10-06T13:31:27.188Z,102088.47
2022-10-06T13:33:59.979Z,102093.78
2022-10-06T13:36:34.026Z,102088.50
2022-10-06T13:39:04.002Z,102076.38
2022-10-06T13:41:43.997Z,102082.81
2022-10-06T13:44:22.492Z,102089.31
2022-10-06T13:46:53.051Z,102086.13
2022-10-06T13:49:31.126Z,102083.56
2022-10-06T13:52:01.012Z,102082.81
2022-10-06T13:54:34.956Z,102085.16
2022-10-06T13:57:01.639Z,102081.94
2022-10-06T13:59:28.129Z,102086.25
2022-10-06T14:01:56.693Z,102088.84
2022-10-06T14:04:23.730Z,102079.16
2022-10-06T14:06:53.547Z,102079.78
2022-10-06T14:09:24.277Z,102084.75
2022-10-06T14:11:53.225Z,102082.41
2022-10-06T14:14:20.420Z,102074.91
2022-10-06T14:16:52.718Z,102082.19
2022-10-06T14:19:33.990Z,102073.66
2022-10-06T14:22:02.280Z,102072.81
2022-10-06T14:24:29.228Z,102083.97
2022-10-06T14:27:01.486Z,102079.69
2022-10-06T14:29:28.058Z,102080.53
2022-10-06T14:31:54.634Z,102075.19
2022-10-06T14:34:21.978Z,102072.81
2022-10-06T14:36:55.131Z,102077.56
2022-10-06T14:39:22.194Z,102077.75
2022-10-06T14:41:49.006Z,102081.38
2022-10-06T14:44:16.095Z,102083.34
2022-10-06T14:46:47.038Z,102074.56
2022-10-06T14:49:13.969Z,102079.72
2022-10-06T14:51:42.082Z,102078.38
2022-10-06T14:54:11.043Z,102070.66
2022-10-06T14:56:39.443Z,102070.22
2022-10-06T14:59:12.389Z,102079.69
2022-10-06T15:01:40.407Z,102080.16
2022-10-06T15:04:15.459Z,102069.38
2022-10-06T15:07:01.313Z,102076.06
2022-10-06T15:09:30.815Z,102076.50
2022-10-06T15:11:58.927Z,102076.06
2022-10-06T15:14:25.641Z,102076.69
2022-10-06T15:16:52.384Z,102074.31
2022-10-06T15:19:19.017Z,102076.66
2022-10-06T15:21:45.882Z,102075.81
2022-10-06T15:24:16.456Z,102063.81
2022-10-06T15:27:02.923Z,102070.03
2022-10-06T15:29:30.122Z,102066.81
2022-10-06T15:31:58.527Z,102072.19
2022-10-06T15:34:27.519Z,102065.09
2022-10-06T15:36:56.047Z,102056.09
2022-10-06T15:39:24.662Z,102059.50
2022-10-06T15:41:51.832Z,102058.88
2022-10-06T15:44:19.599Z,102065.53
2022-10-06T15:46:56.780Z,102065.09
2022-10-06T15:49:25.722Z,102060.59
2022-10-06T15:52:02.404Z,102066.19
2022-10-06T15:54:32.283Z,102055.22
2022-10-06T15:57:01.930Z,102059.09
2022-10-06T15:59:32.633Z,102062.72
2022-10-06T16:02:05.054Z,102064.47
2022-10-06T16:04:40.415Z,102062.09
2022-10-06T16:07:06.942Z,102061.44
2022-10-06T16:09:39.333Z,102069.38
2022-10-06T16:12:11.203Z,102066.81
2022-10-06T16:14:37.900Z,102068.31
2022-10-06T16:17:06.107Z,102054.59
2022-10-06T16:19:33.109Z,102067.25
2022-10-06T16:22:00.611Z,102065.97
2022-10-06T16:24:27.268Z,102065.31
2022-10-06T16:26:56.185Z,102057.38
2022-10-06T16:29:22.759Z,102067.44
2022-10-06T16:31:49.805Z,102069.59
2022-10-06T16:34:16.443Z,102065.91
2022-10-06T16:36:43.070Z,102072.59
2022-10-06T16:39:15.636Z,102077.28
2022-10-06T16:41:42.655Z,102066.81
2022-10-06T16:44:09.539Z,102065.06
2022-10-06T16:46:36.260Z,102065.47
2022-10-06T16:49:04.085Z,102067.16
2022-10-06T16:51:36.297Z,102069.47
2022-10-06T16:54:08.956Z,102076.50
2022-10-06T16:56:38.116Z,102079.06
2022-10-06T16:59:11.621Z,102077.13
2022-10-06T17:01:38.228Z,102064.78
2022-10-06T17:04:14.707Z,102067.75
2022-10-06T17:06:44.411Z,102066.88
2022-10-06T17:09:16.733Z,102071.38
2022-10-06T17:11:46.707Z,102077.59
2022-10-06T17:14:13.812Z,102076.69
2022-10-06T17:16:43.351Z,102074.97
2022-10-06T17:19:12.345Z,102070.34
2022-10-06T17:21:46.039Z,102074.63
2022-10-06T17:24:14.091Z,102077.19
2022-10-06T17:26:43.135Z,102077.50
2022-10-06T17:29:21.657Z,102078.63
2022-10-06T17:31:51.620Z,102071.06
2022-10-06T17:34:21.552Z,102070.44
2022-10-06T17:36:51.421Z,102073.66
2022-10-06T17:39:21.116Z,102074.88
2022-10-06T17:41:49.424Z,102073.09
2022-10-06T17:44:22.734Z,102072.31
2022-10-06T17:46:52.735Z,102073.41
2022-10-06T17:49:20.798Z,102081.41
2022-10-06T17:51:49.025Z,102075.94
2022-10-06T17:54:19.039Z,102066.94
2022-10-06T17:56:47.820Z,102063.97
2022-10-06T17:59:17.356Z,102065.97
2022-10-06T18:01:44.845Z,102070.16
2022-10-06T18:04:15.951Z,102071.78
2022-10-06T18:06:44.383Z,102075.41
2022-10-06T18:09:12.108Z,102073.69
2022-10-06T18:11:41.437Z,102077.41
2022-10-06T18:14:12.275Z,102074.66
2022-10-06T18:16:42.320Z,102080.44
2022-10-06T18:19:12.264Z,102070.38
2022-10-06T18:21:41.159Z,102077.41
2022-10-06T18:24:13.426Z,102074.75
2022-10-06T18:26:41.740Z,102076.34
2022-10-06T18:29:09.974Z,102071.00
2022-10-06T18:31:38.307Z,102076.06
2022-10-06T18:36:52.957Z,102071.97
2022-10-06T18:39:19.539Z,102073.31
2022-10-06T18:41:47.506Z,102069.47
2022-10-06T18:44:14.076Z,102064.19
2022-10-06T18:46:59.349Z,102070.91
2022-10-06T18:49:26.065Z,102070.00
2022-10-06T18:51:58.088Z,102065.88
2022-10-06T18:54:29.018Z,102071.59
2022-10-06T18:56:56.252Z,102071.03
2022-10-06T18:59:28.135Z,102074.22
2022-10-06T19:01:56.556Z,102068.94
2022-10-06T19:04:23.914Z,102067.66
2022-10-06T19:06:53.268Z,102074.50
2022-10-06T19:09:22.554Z,102067.13
2022-10-06T19:11:52.325Z,102076.91
2022-10-06T19:14:24.177Z,102079.31
2022-10-06T19:16:58.780Z,102087.56
2022-10-06T19:19:27.406Z,102077.31
2022-10-06T19:22:02.626Z,102083.72
2022-10-06T19:24:34.813Z,102084.78
2022-10-06T19:27:03.518Z,102081.53
2022-10-06T19:29:36.544Z,102083.34
2022-10-06T19:32:05.387Z,102083.06
2022-10-06T19:34:36.399Z,102078.69
2022-10-06T19:37:04.588Z,102082.13
2022-10-06T19:39:35.021Z,102083.53
2022-10-06T19:42:20.416Z,102072.56
2022-10-06T19:44:46.968Z,102082.59
2022-10-06T19:47:15.342Z,102072.66
2022-10-06T19:49:43.239Z,102077.63
2022-10-06T19:52:12.345Z,102080.94
2022-10-06T19:54:39.579Z,102079.50
2022-10-06T19:57:06.757Z,102082.44
2022-10-06T19:59:33.422Z,102072.66
2022-10-06T20:02:00.786Z,102075.66
2022-10-06T20:04:27.618Z,102074.81
2022-10-06T20:06:54.157Z,102075.88
2022-10-06T20:09:23.084Z,102085.94
2022-10-06T20:11:50.596Z,102074.38
2022-10-06T20:14:21.168Z,102073.00
2022-10-06T20:16:50.930Z,102072.38
2022-10-06T20:19:18.551Z,102079.91
2022-10-06T20:21:45.973Z,102078.19
2022-10-06T20:24:14.751Z,102083.47
2022-10-06T20:26:43.135Z,102084.81
2022-10-06T20:29:12.331Z,102083.75
2022-10-06T20:31:48.384Z,102082.78
2022-10-06T20:34:18.633Z,102084.91
2022-10-06T20:36:45.988Z,102090.16
2022-10-06T20:39:35.168Z,102077.72
2022-10-06T20:42:02.788Z,102081.38
2022-10-06T20:44:29.377Z,102089.38
2022-10-06T20:46:56.071Z,102080.41
2022-10-06T20:49:22.638Z,102084.59
2022-10-06T20:51:51.642Z,102078.28
2022-10-06T20:54:23.645Z,102076.97
2022-10-06T20:56:52.039Z,102075.25
2022-10-06T20:59:20.254Z,102070.47
2022-10-06T21:01:47.728Z,102069.22
2022-10-06T21:04:15.099Z,102071.03
2022-10-06T21:06:41.823Z,102065.13
2022-10-06T21:09:12.495Z,102062.88
2022-10-06T21:11:39.088Z,102055.75
2022-10-06T21:14:10.425Z,102062.22
2022-10-06T21:16:39.026Z,102058.03
2022-10-06T21:19:08.560Z,102058.91
2022-10-06T21:21:36.512Z,102052.00
2022-10-06T21:24:04.548Z,102047.81
2022-10-06T21:26:31.081Z,102061.56
2022-10-06T21:28:57.841Z,102057.16
2022-10-06T21:31:26.860Z,102053.72
2022-10-06T21:33:54.267Z,102059.19
2022-10-06T21:36:26.470Z,102057.59
2022-10-06T21:38:57.755Z,102048.66
2022-10-06T21:41:27.089Z,102048.53
2022-10-06T21:44:17.253Z,102045.19
2022-10-06T21:46:51.147Z,102048.97
2022-10-06T21:49:23.125Z,102043.41
2022-10-06T21:51:52.010Z,102038.66
2022-10-06T21:54:19.351Z,102033.97
2022-10-06T21:56:46.347Z,102034.91
2022-10-06T21:59:13.317Z,102032.63
2022-10-06T22:01:42.826Z,102023.03
2022-10-06T22:04:09.879Z,102023.09
2022-10-06T22:06:37.339Z,102022.22
2022-10-06T22:09:06.336Z,102014.50
2022-10-06T22:11:36.105Z,102012.91
2022-10-06T22:14:04.978Z,102011.84
2022-10-06T22:16:33.751Z,102009.44
2022-10-06T22:19:02.805Z,102006.59
2022-10-06T22:21:32.306Z,102003.28
2022-10-06T22:24:01.381Z,102009.31
2022-10-06T22:26:29.535Z,102002.94
2022-10-06T22:28:57.354Z,102006.47
2022-10-06T22:31:26.407Z,101997.88
2022-10-06T22:34:04.682Z,102002.66
2022-10-06T22:36:31.720Z,102001.41
2022-10-06T22:38:58.253Z,101999.13
2022-10-06T22:41:24.815Z,101994.91
2022-10-06T22:43:57.384Z,101984.56
2022-10-06T22:46:29.267Z,101984.69
2022-10-06T22:48:56.144Z,101986.22
2022-10-06T22:51:23.047Z,101981.91
2022-10-06T22:53:57.628Z,101974.31
2022-10-06T22:56:26.572Z,101963.50
2022-10-06T22:58:53.097Z,101963.50
2022-10-06T23:01:19.900Z,101962.53
2022-10-06T23:03:47.197Z,101962.16
2022-10-06T23:06:15.816Z,101963.69
2022-10-06T23:08:42.430Z,101959.38
2022-10-06T23:11:12.861Z,101969.88
2022-10-06T23:13:39.544Z,101960.53
2022-10-06T23:16:09.716Z,101953.59
2022-10-06T23:18:38.581Z,101950.50
2022-10-06T23:21:10.786Z,101942.56
2022-10-06T23:23:37.396Z,101944.09
2022-10-06T23:26:09.455Z,101940.16
2022-10-06T23:28:36.947Z,101935.63
2022-10-06T23:31:05.238Z,101936.38
2022-10-06T23:33:32.728Z,101939.19
2022-10-06T23:36:04.623Z,101933.28
2022-10-06T23:38:31.320Z,101935.88
2022-10-06T23:40:58.309Z,101931.44
2022-10-06T23:43:24.919Z,101934.22
2022-10-06T23:45:51.826Z,101928.84
2022-10-06T23:48:18.511Z,101923.75
2022-10-06T23:51:02.169Z,101928.63
2022-10-06T23:53:29.979Z,101922.19
2022-10-06T23:55:57.439Z,101928.53
2022-10-06T23:58:24.776Z,101919.63
